sensor_id;sensor_type;location;lat;lon;timestamp;P1;durP1;ratioP1;P2;durP2;ratioP2
20794;SDS011;28087;-33.874;151.240;2023-02-01T00:02:00;9.25;;;1.80;;
20794;SDS011;28087;-33.874;151.240;2023-02-01T00:04:36;4.90;;;1.52;;
20794;SDS011;28087;-33.874;151.240;2023-02-01T00:07:12;6.78;;;1.58;;
20794;SDS011;28087;-33.874;151.240;2023-02-01T00:10:01;6.65;;;1.40;;
20794;SDS011;28087;-33.874;151.240;2023-02-01T00:12:40;5.85;;;1.40;;
20794;SDS011;28087;-33.874;151.240;2023-02-01T00:15:32;5.97;;;1.83;;
20794;SDS011;28087;-33.874;151.240;2023-02-01T00:18:08;4.72;;;1.50;;
20794;SDS011;28087;-33.874;151.240;2023-02-01T00:20:45;7.32;;;1.75;;
20794;SDS011;28087;-33.874;151.240;2023-02-01T00:23:21;6.43;;;1.42;;
20794;SDS011;28087;-33.874;151.240;2023-02-01T00:26:03;6.68;;;1.75;;
20794;SDS011;28087;-33.874;151.240;2023-02-01T00:28:42;6.80;;;1.58;;
20794;SDS011;28087;-33.874;151.240;2023-02-01T00:31:48;7.18;;;1.30;;
20794;SDS011;28087;-33.874;151.240;2023-02-01T00:34:24;7.85;;;1.70;;
20794;SDS011;28087;-33.874;151.240;2023-02-01T00:37:00;10.30;;;1.92;;
20794;SDS011;28087;-33.874;151.240;2023-02-01T00:40:44;5.95;;;1.75;;
20794;SDS011;28087;-33.874;151.240;2023-02-01T00:43:22;6.53;;;1.70;;
20794;SDS011;28087;-33.874;151.240;2023-02-01T00:46:53;10.65;;;1.70;;
20794;SDS011;28087;-33.874;151.240;2023-02-01T00:49:29;8.00;;;1.77;;
20794;SDS011;28087;-33.874;151.240;2023-02-01T00:52:15;8.07;;;1.73;;
20794;SDS011;28087;-33.874;151.240;2023-02-01T00:54:55;7.75;;;1.63;;
20794;SDS011;28087;-33.874;151.240;2023-02-01T00:57:31;4.28;;;1.40;;
20794;SDS011;28087;-33.874;151.240;2023-02-01T01:00:06;8.02;;;1.67;;
20794;SDS011;28087;-33.874;151.240;2023-02-01T01:02:49;5.25;;;1.45;;
20794;SDS011;28087;-33.874;151.240;2023-02-01T01:26:13;7.78;;;2.08;;
20794;SDS011;28087;-33.874;151.240;2023-02-01T01:29:20;15.32;;;3.63;;
20794;SDS011;28087;-33.874;151.240;2023-02-01T01:31:55;11.18;;;2.90;;
20794;SDS011;28087;-33.874;151.240;2023-02-01T01:34:32;9.23;;;2.10;;
20794;SDS011;28087;-33.874;151.240;2023-02-01T01:37:13;8.55;;;1.80;;
20794;SDS011;28087;-33.874;151.240;2023-02-01T01:40:02;9.85;;;1.67;;
20794;SDS011;28087;-33.874;151.240;2023-02-01T01:42:39;8.20;;;1.92;;
20794;SDS011;28087;-33.874;151.240;2023-02-01T01:45:29;8.77;;;1.85;;
20794;SDS011;28087;-33.874;151.240;2023-02-01T01:48:08;10.82;;;1.75;;
20794;SDS011;28087;-33.874;151.240;2023-02-01T01:54:02;8.45;;;2.13;;
20794;SDS011;28087;-33.874;151.240;2023-02-01T01:56:47;9.68;;;2.13;;
20794;SDS011;28087;-33.874;151.240;2023-02-01T01:59:26;7.10;;;1.85;;
20794;SDS011;28087;-33.874;151.240;2023-02-01T02:02:08;6.35;;;1.67;;
20794;SDS011;28087;-33.874;151.240;2023-02-01T02:08:19;4.38;;;1.45;;
20794;SDS011;28087;-33.874;151.240;2023-02-01T02:11:05;5.10;;;1.50;;
20794;SDS011;28087;-33.874;151.240;2023-02-01T02:13:52;5.60;;;1.38;;
20794;SDS011;28087;-33.874;151.240;2023-02-01T02:23:24;3.63;;;1.30;;
20794;SDS011;28087;-33.874;151.240;2023-02-01T02:38:08;6.05;;;1.20;;
20794;SDS011;28087;-33.874;151.240;2023-02-01T02:40:51;2.97;;;1.08;;
20794;SDS011;28087;-33.874;151.240;2023-02-01T02:43:37;4.93;;;1.20;;
20794;SDS011;28087;-33.874;151.240;2023-02-01T02:46:44;5.20;;;1.20;;
20794;SDS011;28087;-33.874;151.240;2023-02-01T02:49:42;4.40;;;1.00;;
20794;SDS011;28087;-33.874;151.240;2023-02-01T02:53:21;6.95;;;1.23;;
20794;SDS011;28087;-33.874;151.240;2023-02-01T02:56:17;3.20;;;0.90;;
20794;SDS011;28087;-33.874;151.240;2023-02-01T02:59:12;3.15;;;1.00;;
20794;SDS011;28087;-33.874;151.240;2023-02-01T03:02:07;5.65;;;2.63;;
20794;SDS011;28087;-33.874;151.240;2023-02-01T03:04:59;8.30;;;2.78;;
20794;SDS011;28087;-33.874;151.240;2023-02-01T03:07:46;7.88;;;2.35;;
20794;SDS011;28087;-33.874;151.240;2023-02-01T03:10:32;7.85;;;2.17;;
20794;SDS011;28087;-33.874;151.240;2023-02-01T03:13:19;7.53;;;1.20;;
20794;SDS011;28087;-33.874;151.240;2023-02-01T03:16:10;7.65;;;1.75;;
20794;SDS011;28087;-33.874;151.240;2023-02-01T03:19:02;6.65;;;1.60;;
20794;SDS011;28087;-33.874;151.240;2023-02-01T03:21:46;7.22;;;1.30;;
20794;SDS011;28087;-33.874;151.240;2023-02-01T03:24:24;6.30;;;1.48;;
20794;SDS011;28087;-33.874;151.240;2023-02-01T03:27:09;6.60;;;1.73;;
20794;SDS011;28087;-33.874;151.240;2023-02-01T03:29:51;8.35;;;1.50;;
20794;SDS011;28087;-33.874;151.240;2023-02-01T03:32:33;7.38;;;1.73;;
20794;SDS011;28087;-33.874;151.240;2023-02-01T03:35:23;6.13;;;1.60;;
20794;SDS011;28087;-33.874;151.240;2023-02-01T03:38:04;6.60;;;1.50;;
20794;SDS011;28087;-33.874;151.240;2023-02-01T03:40:50;6.75;;;1.70;;
20794;SDS011;28087;-33.874;151.240;2023-02-01T03:43:37;5.45;;;1.42;;
20794;SDS011;28087;-33.874;151.240;2023-02-01T03:46:24;6.07;;;1.60;;
20794;SDS011;28087;-33.874;151.240;2023-02-01T03:49:05;6.57;;;1.60;;
20794;SDS011;28087;-33.874;151.240;2023-02-01T03:51:43;7.47;;;1.70;;
20794;SDS011;28087;-33.874;151.240;2023-02-01T03:54:19;6.97;;;1.63;;
20794;SDS011;28087;-33.874;151.240;2023-02-01T03:56:57;6.30;;;1.63;;
20794;SDS011;28087;-33.874;151.240;2023-02-01T03:59:41;7.18;;;1.73;;
20794;SDS011;28087;-33.874;151.240;2023-02-01T04:02:41;9.02;;;1.83;;
20794;SDS011;28087;-33.874;151.240;2023-02-01T04:05:26;5.40;;;1.70;;
20794;SDS011;28087;-33.874;151.240;2023-02-01T04:08:06;4.85;;;1.60;;
20794;SDS011;28087;-33.874;151.240;2023-02-01T04:10:43;7.28;;;1.70;;
20794;SDS011;28087;-33.874;151.240;2023-02-01T04:19:32;7.22;;;1.63;;
20794;SDS011;28087;-33.874;151.240;2023-02-01T04:22:08;6.85;;;1.58;;
20794;SDS011;28087;-33.874;151.240;2023-02-01T04:24:47;8.75;;;1.80;;
20794;SDS011;28087;-33.874;151.240;2023-02-01T04:27:35;7.78;;;1.67;;
20794;SDS011;28087;-33.874;151.240;2023-02-01T04:30:11;7.65;;;1.80;;
20794;SDS011;28087;-33.874;151.240;2023-02-01T04:33:06;7.35;;;1.63;;
20794;SDS011;28087;-33.874;151.240;2023-02-01T04:36:09;7.85;;;1.60;;
20794;SDS011;28087;-33.874;151.240;2023-02-01T04:39:15;6.50;;;1.50;;
20794;SDS011;28087;-33.874;151.240;2023-02-01T04:41:55;8.88;;;1.65;;
20794;SDS011;28087;-33.874;151.240;2023-02-01T04:44:34;6.85;;;1.80;;
20794;SDS011;28087;-33.874;151.240;2023-02-01T04:47:12;10.65;;;1.70;;
20794;SDS011;28087;-33.874;151.240;2023-02-01T04:53:39;9.98;;;1.80;;
20794;SDS011;28087;-33.874;151.240;2023-02-01T04:56:14;8.93;;;1.83;;
20794;SDS011;28087;-33.874;151.240;2023-02-01T04:59:03;7.22;;;1.52;;
20794;SDS011;28087;-33.874;151.240;2023-02-01T05:02:18;10.07;;;1.98;;
20794;SDS011;28087;-33.874;151.240;2023-02-01T05:04:54;10.20;;;1.90;;
20794;SDS011;28087;-33.874;151.240;2023-02-01T05:07:41;7.72;;;2.10;;
20794;SDS011;28087;-33.874;151.240;2023-02-01T05:10:19;8.52;;;1.92;;
20794;SDS011;28087;-33.874;151.240;2023-02-01T05:12:54;9.48;;;1.60;;
20794;SDS011;28087;-33.874;151.240;2023-02-01T05:15:46;9.27;;;1.85;;
20794;SDS011;28087;-33.874;151.240;2023-02-01T05:21:25;7.15;;;1.90;;
20794;SDS011;28087;-33.874;151.240;2023-02-01T05:24:00;9.15;;;1.73;;
20794;SDS011;28087;-33.874;151.240;2023-02-01T05:26:56;10.85;;;2.00;;
20794;SDS011;28087;-33.874;151.240;2023-02-01T05:29:35;8.88;;;1.50;;
20794;SDS011;28087;-33.874;151.240;2023-02-01T05:32:17;7.72;;;1.67;;
20794;SDS011;28087;-33.874;151.240;2023-02-01T05:35:41;7.47;;;1.73;;
20794;SDS011;28087;-33.874;151.240;2023-02-01T05:38:26;7.80;;;1.67;;
20794;SDS011;28087;-33.874;151.240;2023-02-01T05:41:11;8.27;;;1.75;;
20794;SDS011;28087;-33.874;151.240;2023-02-01T05:43:58;7.65;;;1.50;;
20794;SDS011;28087;-33.874;151.240;2023-02-01T05:46:34;8.65;;;1.85;;
20794;SDS011;28087;-33.874;151.240;2023-02-01T05:49:19;8.52;;;1.90;;
20794;SDS011;28087;-33.874;151.240;2023-02-01T05:51:55;8.95;;;1.70;;
20794;SDS011;28087;-33.874;151.240;2023-02-01T05:57:53;6.57;;;1.50;;
20794;SDS011;28087;-33.874;151.240;2023-02-01T06:00:39;7.55;;;1.80;;
20794;SDS011;28087;-33.874;151.240;2023-02-01T06:03:42;4.28;;;1.60;;
20794;SDS011;28087;-33.874;151.240;2023-02-01T06:06:37;6.30;;;1.60;;
20794;SDS011;28087;-33.874;151.240;2023-02-01T06:09:16;9.50;;;1.80;;
20794;SDS011;28087;-33.874;151.240;2023-02-01T06:12:14;7.28;;;1.77;;
20794;SDS011;28087;-33.874;151.240;2023-02-01T06:15:00;7.18;;;1.75;;
20794;SDS011;28087;-33.874;151.240;2023-02-01T06:18:09;6.78;;;1.63;;
20794;SDS011;28087;-33.874;151.240;2023-02-01T06:20:52;6.88;;;1.90;;
20794;SDS011;28087;-33.874;151.240;2023-02-01T06:23:37;6.78;;;1.70;;
20794;SDS011;28087;-33.874;151.240;2023-02-01T06:29:27;6.25;;;1.60;;
20794;SDS011;28087;-33.874;151.240;2023-02-01T06:32:06;7.43;;;1.67;;
20794;SDS011;28087;-33.874;151.240;2023-02-01T06:38:07;5.47;;;1.70;;
20794;SDS011;28087;-33.874;151.240;2023-02-01T06:41:45;7.50;;;1.77;;
20794;SDS011;28087;-33.874;151.240;2023-02-01T06:44:12;9.50;;;2.00;;
20794;SDS011;28087;-33.874;151.240;2023-02-01T06:47:06;5.78;;;1.60;;
20794;SDS011;28087;-33.874;151.240;2023-02-01T06:49:42;6.35;;;1.70;;
20794;SDS011;28087;-33.874;151.240;2023-02-01T06:52:26;6.32;;;1.80;;
20794;SDS011;28087;-33.874;151.240;2023-02-01T06:55:07;9.18;;;1.80;;
20794;SDS011;28087;-33.874;151.240;2023-02-01T06:57:41;7.40;;;1.70;;
20794;SDS011;28087;-33.874;151.240;2023-02-01T07:00:17;5.65;;;2.00;;
20794;SDS011;28087;-33.874;151.240;2023-02-01T07:02:56;6.68;;;1.60;;
20794;SDS011;28087;-33.874;151.240;2023-02-01T07:05:32;7.20;;;1.73;;
20794;SDS011;28087;-33.874;151.240;2023-02-01T07:08:12;8.10;;;2.10;;
20794;SDS011;28087;-33.874;151.240;2023-02-01T07:10:52;7.28;;;1.80;;
20794;SDS011;28087;-33.874;151.240;2023-02-01T07:13:42;6.97;;;1.60;;
20794;SDS011;28087;-33.874;151.240;2023-02-01T07:16:17;9.90;;;1.77;;
20794;SDS011;28087;-33.874;151.240;2023-02-01T07:20:21;8.48;;;1.95;;
20794;SDS011;28087;-33.874;151.240;2023-02-01T07:22:30;7.40;;;1.70;;
20794;SDS011;28087;-33.874;151.240;2023-02-01T07:25:13;6.38;;;1.70;;
20794;SDS011;28087;-33.874;151.240;2023-02-01T07:27:50;7.07;;;2.03;;
20794;SDS011;28087;-33.874;151.240;2023-02-01T07:30:24;6.10;;;1.88;;
20794;SDS011;28087;-33.874;151.240;2023-02-01T07:33:20;6.22;;;1.90;;
20794;SDS011;28087;-33.874;151.240;2023-02-01T07:35:59;8.00;;;2.03;;
20794;SDS011;28087;-33.874;151.240;2023-02-01T07:38:35;7.75;;;1.65;;
20794;SDS011;28087;-33.874;151.240;2023-02-01T07:41:25;9.00;;;3.50;;
20794;SDS011;28087;-33.874;151.240;2023-02-01T07:44:01;9.70;;;2.60;;
20794;SDS011;28087;-33.874;151.240;2023-02-01T07:46:45;8.20;;;2.25;;
20794;SDS011;28087;-33.874;151.240;2023-02-01T07:49:42;9.27;;;2.97;;
20794;SDS011;28087;-33.874;151.240;2023-02-01T07:52:17;5.85;;;1.73;;
20794;SDS011;28087;-33.874;151.240;2023-02-01T07:54:53;6.82;;;2.50;;
20794;SDS011;28087;-33.874;151.240;2023-02-01T07:57:28;7.10;;;2.00;;
20794;SDS011;28087;-33.874;151.240;2023-02-01T08:03:25;12.68;;;5.47;;
20794;SDS011;28087;-33.874;151.240;2023-02-01T08:06:00;8.52;;;4.15;;
20794;SDS011;28087;-33.874;151.240;2023-02-01T08:09:31;9.80;;;3.10;;
20794;SDS011;28087;-33.874;151.240;2023-02-01T08:12:05;9.48;;;3.80;;
20794;SDS011;28087;-33.874;151.240;2023-02-01T08:14:42;7.43;;;2.33;;
20794;SDS011;28087;-33.874;151.240;2023-02-01T08:17:16;8.77;;;2.05;;
20794;SDS011;28087;-33.874;151.240;2023-02-01T08:19:54;5.57;;;1.85;;
20794;SDS011;28087;-33.874;151.240;2023-02-01T08:22:36;6.13;;;1.75;;
20794;SDS011;28087;-33.874;151.240;2023-02-01T08:25:19;7.72;;;2.20;;
20794;SDS011;28087;-33.874;151.240;2023-02-01T08:28:02;8.25;;;1.58;;
20794;SDS011;28087;-33.874;151.240;2023-02-01T08:31:09;7.50;;;1.80;;
20794;SDS011;28087;-33.874;151.240;2023-02-01T08:33:58;8.23;;;1.73;;
20794;SDS011;28087;-33.874;151.240;2023-02-01T08:37:07;6.88;;;1.90;;
20794;SDS011;28087;-33.874;151.240;2023-02-01T08:39:54;9.55;;;2.20;;
20794;SDS011;28087;-33.874;151.240;2023-02-01T08:42:32;7.90;;;2.20;;
20794;SDS011;28087;-33.874;151.240;2023-02-01T08:45:25;7.18;;;2.00;;
20794;SDS011;28087;-33.874;151.240;2023-02-01T08:48:01;8.45;;;2.13;;
20794;SDS011;28087;-33.874;151.240;2023-02-01T08:50:36;7.47;;;1.90;;
20794;SDS011;28087;-33.874;151.240;2023-02-01T08:53:12;6.85;;;1.90;;
20794;SDS011;28087;-33.874;151.240;2023-02-01T08:55:55;8.15;;;2.53;;
20794;SDS011;28087;-33.874;151.240;2023-02-01T09:02:05;10.00;;;2.20;;
20794;SDS011;28087;-33.874;151.240;2023-02-01T09:04:39;8.02;;;2.30;;
20794;SDS011;28087;-33.874;151.240;2023-02-01T09:07:16;6.82;;;1.90;;
20794;SDS011;28087;-33.874;151.240;2023-02-01T09:10:01;6.50;;;1.83;;
20794;SDS011;28087;-33.874;151.240;2023-02-01T09:12:57;6.22;;;1.90;;
20794;SDS011;28087;-33.874;151.240;2023-02-01T09:15:42;9.10;;;2.15;;
20794;SDS011;28087;-33.874;151.240;2023-02-01T09:18:58;9.30;;;2.25;;
20794;SDS011;28087;-33.874;151.240;2023-02-01T09:21:53;9.80;;;2.25;;
20794;SDS011;28087;-33.874;151.240;2023-02-01T09:24:28;7.50;;;2.13;;
20794;SDS011;28087;-33.874;151.240;2023-02-01T09:27:04;8.95;;;2.00;;
20794;SDS011;28087;-33.874;151.240;2023-02-01T09:29:49;10.02;;;2.33;;
20794;SDS011;28087;-33.874;151.240;2023-02-01T09:32:31;7.95;;;2.10;;
20794;SDS011;28087;-33.874;151.240;2023-02-01T09:35:05;9.80;;;2.55;;
20794;SDS011;28087;-33.874;151.240;2023-02-01T09:37:40;11.95;;;2.50;;
20794;SDS011;28087;-33.874;151.240;2023-02-01T09:40:15;10.20;;;2.50;;
20794;SDS011;28087;-33.874;151.240;2023-02-01T09:45:49;8.25;;;2.10;;
20794;SDS011;28087;-33.874;151.240;2023-02-01T09:48:30;8.25;;;2.30;;
20794;SDS011;28087;-33.874;151.240;2023-02-01T09:51:07;8.48;;;2.08;;
20794;SDS011;28087;-33.874;151.240;2023-02-01T09:53:46;9.63;;;2.20;;
20794;SDS011;28087;-33.874;151.240;2023-02-01T09:56:33;9.02;;;2.30;;
20794;SDS011;28087;-33.874;151.240;2023-02-01T10:02:15;9.82;;;2.35;;
20794;SDS011;28087;-33.874;151.240;2023-02-01T10:04:53;8.32;;;2.35;;
20794;SDS011;28087;-33.874;151.240;2023-02-01T10:07:32;12.95;;;2.78;;
20794;SDS011;28087;-33.874;151.240;2023-02-01T10:10:11;9.27;;;2.58;;
20794;SDS011;28087;-33.874;151.240;2023-02-01T10:13:03;7.20;;;2.17;;
20794;SDS011;28087;-33.874;151.240;2023-02-01T10:15:44;10.27;;;2.38;;
20794;SDS011;28087;-33.874;151.240;2023-02-01T10:18:29;12.35;;;2.90;;
20794;SDS011;28087;-33.874;151.240;2023-02-01T10:21:09;7.43;;;2.13;;
20794;SDS011;28087;-33.874;151.240;2023-02-01T10:24:05;10.02;;;2.20;;
20794;SDS011;28087;-33.874;151.240;2023-02-01T10:27:01;9.00;;;2.53;;
20794;SDS011;28087;-33.874;151.240;2023-02-01T10:29:52;9.75;;;2.55;;
20794;SDS011;28087;-33.874;151.240;2023-02-01T10:33:01;8.80;;;2.50;;
20794;SDS011;28087;-33.874;151.240;2023-02-01T10:35:41;10.38;;;2.25;;
20794;SDS011;28087;-33.874;151.240;2023-02-01T10:38:31;9.80;;;2.25;;
20794;SDS011;28087;-33.874;151.240;2023-02-01T10:41:31;15.60;;;2.28;;
20794;SDS011;28087;-33.874;151.240;2023-02-01T10:44:10;8.93;;;2.00;;
20794;SDS011;28087;-33.874;151.240;2023-02-01T10:49:32;12.50;;;2.40;;
20794;SDS011;28087;-33.874;151.240;2023-02-01T10:52:12;8.82;;;2.30;;
20794;SDS011;28087;-33.874;151.240;2023-02-01T10:54:49;9.70;;;2.33;;
20794;SDS011;28087;-33.874;151.240;2023-02-01T10:57:27;7.97;;;2.33;;
20794;SDS011;28087;-33.874;151.240;2023-02-01T11:00:06;11.57;;;2.55;;
20794;SDS011;28087;-33.874;151.240;2023-02-01T11:06:27;10.07;;;2.33;;
20794;SDS011;28087;-33.874;151.240;2023-02-01T11:09:16;7.55;;;2.05;;
20794;SDS011;28087;-33.874;151.240;2023-02-01T11:11:55;10.52;;;2.15;;
20794;SDS011;28087;-33.874;151.240;2023-02-01T11:15:01;7.45;;;2.28;;
20794;SDS011;28087;-33.874;151.240;2023-02-01T11:17:45;12.48;;;2.50;;
20794;SDS011;28087;-33.874;151.240;2023-02-01T11:23:47;13.38;;;2.60;;
20794;SDS011;28087;-33.874;151.240;2023-02-01T11:26:27;10.00;;;2.58;;
20794;SDS011;28087;-33.874;151.240;2023-02-01T11:32:08;10.80;;;2.40;;
20794;SDS011;28087;-33.874;151.240;2023-02-01T11:34:45;7.63;;;2.00;;
20794;SDS011;28087;-33.874;151.240;2023-02-01T11:37:21;8.30;;;2.38;;
20794;SDS011;28087;-33.874;151.240;2023-02-01T11:40:01;14.48;;;2.70;;
20794;SDS011;28087;-33.874;151.240;2023-02-01T11:42:39;9.90;;;2.60;;
20794;SDS011;28087;-33.874;151.240;2023-02-01T11:45:30;11.38;;;2.80;;
20794;SDS011;28087;-33.874;151.240;2023-02-01T11:48:08;11.85;;;2.72;;
20794;SDS011;28087;-33.874;151.240;2023-02-01T11:50:58;10.50;;;2.30;;
20794;SDS011;28087;-33.874;151.240;2023-02-01T11:53:41;10.50;;;2.50;;
20794;SDS011;28087;-33.874;151.240;2023-02-01T11:56:19;9.45;;;2.33;;
20794;SDS011;28087;-33.874;151.240;2023-02-01T11:59:05;7.05;;;2.20;;
20794;SDS011;28087;-33.874;151.240;2023-02-01T12:01:44;14.80;;;2.58;;
20794;SDS011;28087;-33.874;151.240;2023-02-01T12:07:19;8.13;;;2.50;;
20794;SDS011;28087;-33.874;151.240;2023-02-01T12:10:01;9.55;;;2.65;;
20794;SDS011;28087;-33.874;151.240;2023-02-01T12:12:40;10.82;;;2.63;;
20794;SDS011;28087;-33.874;151.240;2023-02-01T12:15:25;10.50;;;2.33;;
20794;SDS011;28087;-33.874;151.240;2023-02-01T12:18:23;12.05;;;2.53;;
20794;SDS011;28087;-33.874;151.240;2023-02-01T12:21:06;8.60;;;2.20;;
20794;SDS011;28087;-33.874;151.240;2023-02-01T12:23:48;11.45;;;2.47;;
20794;SDS011;28087;-33.874;151.240;2023-02-01T12:26:38;8.18;;;2.33;;
20794;SDS011;28087;-33.874;151.240;2023-02-01T12:29:18;9.88;;;2.50;;
20794;SDS011;28087;-33.874;151.240;2023-02-01T12:32:04;9.60;;;2.42;;
20794;SDS011;28087;-33.874;151.240;2023-02-01T12:34:50;6.97;;;2.00;;
20794;SDS011;28087;-33.874;151.240;2023-02-01T12:37:35;8.45;;;2.50;;
20794;SDS011;28087;-33.874;151.240;2023-02-01T12:40:19;10.35;;;2.28;;
20794;SDS011;28087;-33.874;151.240;2023-02-01T12:42:56;8.10;;;2.28;;
20794;SDS011;28087;-33.874;151.240;2023-02-01T12:45:33;8.07;;;2.17;;
20794;SDS011;28087;-33.874;151.240;2023-02-01T12:48:21;9.80;;;2.40;;
20794;SDS011;28087;-33.874;151.240;2023-02-01T12:50:58;10.57;;;2.83;;
20794;SDS011;28087;-33.874;151.240;2023-02-01T12:53:37;11.18;;;2.35;;
20794;SDS011;28087;-33.874;151.240;2023-02-01T12:56:18;9.07;;;2.70;;
20794;SDS011;28087;-33.874;151.240;2023-02-01T12:58:56;8.65;;;2.33;;
20794;SDS011;28087;-33.874;151.240;2023-02-01T13:01:34;8.60;;;2.10;;
20794;SDS011;28087;-33.874;151.240;2023-02-01T13:04:12;8.23;;;2.30;;
20794;SDS011;28087;-33.874;151.240;2023-02-01T13:06:53;9.40;;;2.28;;
20794;SDS011;28087;-33.874;151.240;2023-02-01T13:09:30;12.40;;;2.25;;
20794;SDS011;28087;-33.874;151.240;2023-02-01T13:12:08;10.02;;;2.33;;
20794;SDS011;28087;-33.874;151.240;2023-02-01T13:14:46;8.75;;;2.08;;
20794;SDS011;28087;-33.874;151.240;2023-02-01T13:17:23;11.73;;;2.50;;
20794;SDS011;28087;-33.874;151.240;2023-02-01T13:20:03;7.65;;;2.45;;
20794;SDS011;28087;-33.874;151.240;2023-02-01T13:22:39;8.13;;;2.00;;
20794;SDS011;28087;-33.874;151.240;2023-02-01T13:25:18;9.20;;;2.00;;
20794;SDS011;28087;-33.874;151.240;2023-02-01T13:27:55;8.52;;;2.05;;
20794;SDS011;28087;-33.874;151.240;2023-02-01T13:30:36;9.43;;;2.30;;
20794;SDS011;28087;-33.874;151.240;2023-02-01T13:33:16;7.45;;;2.10;;
20794;SDS011;28087;-33.874;151.240;2023-02-01T13:39:16;8.15;;;2.10;;
20794;SDS011;28087;-33.874;151.240;2023-02-01T13:41:56;9.60;;;2.60;;
20794;SDS011;28087;-33.874;151.240;2023-02-01T13:44:33;8.40;;;2.40;;
20794;SDS011;28087;-33.874;151.240;2023-02-01T13:47:12;8.13;;;2.08;;
20794;SDS011;28087;-33.874;151.240;2023-02-01T13:49:47;11.93;;;2.47;;
20794;SDS011;28087;-33.874;151.240;2023-02-01T13:52:27;7.53;;;1.98;;
20794;SDS011;28087;-33.874;151.240;2023-02-01T13:55:23;9.02;;;2.33;;
20794;SDS011;28087;-33.874;151.240;2023-02-01T13:58:09;10.00;;;2.20;;
20794;SDS011;28087;-33.874;151.240;2023-02-01T14:00:45;8.30;;;1.90;;
20794;SDS011;28087;-33.874;151.240;2023-02-01T14:03:22;7.63;;;2.15;;
20794;SDS011;28087;-33.874;151.240;2023-02-01T14:05:57;8.55;;;2.17;;
20794;SDS011;28087;-33.874;151.240;2023-02-01T14:08:42;8.45;;;2.10;;
20794;SDS011;28087;-33.874;151.240;2023-02-01T14:17:32;9.07;;;2.10;;
20794;SDS011;28087;-33.874;151.240;2023-02-01T14:29:00;6.60;;;1.90;;
20794;SDS011;28087;-33.874;151.240;2023-02-01T14:31:51;9.73;;;2.03;;
20794;SDS011;28087;-33.874;151.240;2023-02-01T14:34:39;9.63;;;2.30;;
20794;SDS011;28087;-33.874;151.240;2023-02-01T14:37:23;7.53;;;2.20;;
20794;SDS011;28087;-33.874;151.240;2023-02-01T14:39:59;6.90;;;1.92;;
20794;SDS011;28087;-33.874;151.240;2023-02-01T14:42:37;10.02;;;2.15;;
20794;SDS011;28087;-33.874;151.240;2023-02-01T14:50:54;5.85;;;1.95;;
20794;SDS011;28087;-33.874;151.240;2023-02-01T14:53:32;6.00;;;1.83;;
20794;SDS011;28087;-33.874;151.240;2023-02-01T14:56:07;7.40;;;1.92;;
20794;SDS011;28087;-33.874;151.240;2023-02-01T14:58:45;6.88;;;2.10;;
20794;SDS011;28087;-33.874;151.240;2023-02-01T15:01:22;4.80;;;1.83;;
20794;SDS011;28087;-33.874;151.240;2023-02-01T15:04:01;6.55;;;2.00;;
20794;SDS011;28087;-33.874;151.240;2023-02-01T15:06:40;8.02;;;2.00;;
20794;SDS011;28087;-33.874;151.240;2023-02-01T15:09:17;8.95;;;2.20;;
20794;SDS011;28087;-33.874;151.240;2023-02-01T15:11:54;6.55;;;2.00;;
20794;SDS011;28087;-33.874;151.240;2023-02-01T15:14:31;7.05;;;1.90;;
20794;SDS011;28087;-33.874;151.240;2023-02-01T15:17:17;10.07;;;2.10;;
20794;SDS011;28087;-33.874;151.240;2023-02-01T15:19:54;5.13;;;1.63;;
20794;SDS011;28087;-33.874;151.240;2023-02-01T15:22:30;6.93;;;1.95;;
20794;SDS011;28087;-33.874;151.240;2023-02-01T15:25:17;11.50;;;1.90;;
20794;SDS011;28087;-33.874;151.240;2023-02-01T15:27:53;8.75;;;2.10;;
20794;SDS011;28087;-33.874;151.240;2023-02-01T15:30:29;9.05;;;2.00;;
20794;SDS011;28087;-33.874;151.240;2023-02-01T15:33:05;7.10;;;2.25;;
20794;SDS011;28087;-33.874;151.240;2023-02-01T15:35:41;7.22;;;2.00;;
20794;SDS011;28087;-33.874;151.240;2023-02-01T15:38:34;8.57;;;2.20;;
20794;SDS011;28087;-33.874;151.240;2023-02-01T15:41:13;5.57;;;2.15;;
20794;SDS011;28087;-33.874;151.240;2023-02-01T15:44:02;6.80;;;2.10;;
20794;SDS011;28087;-33.874;151.240;2023-02-01T15:46:39;6.85;;;1.90;;
20794;SDS011;28087;-33.874;151.240;2023-02-01T15:49:18;5.78;;;2.00;;
20794;SDS011;28087;-33.874;151.240;2023-02-01T15:51:54;10.23;;;1.80;;
20794;SDS011;28087;-33.874;151.240;2023-02-01T15:54:31;6.60;;;1.83;;
20794;SDS011;28087;-33.874;151.240;2023-02-01T15:57:07;7.68;;;2.00;;
20794;SDS011;28087;-33.874;151.240;2023-02-01T15:59:45;6.15;;;2.00;;
20794;SDS011;28087;-33.874;151.240;2023-02-01T16:02:28;10.38;;;2.10;;
20794;SDS011;28087;-33.874;151.240;2023-02-01T16:05:03;9.02;;;2.00;;
20794;SDS011;28087;-33.874;151.240;2023-02-01T16:07:38;7.80;;;2.00;;
20794;SDS011;28087;-33.874;151.240;2023-02-01T16:10:31;7.15;;;1.95;;
20794;SDS011;28087;-33.874;151.240;2023-02-01T16:13:07;9.20;;;2.03;;
20794;SDS011;28087;-33.874;151.240;2023-02-01T16:15:45;8.05;;;1.90;;
20794;SDS011;28087;-33.874;151.240;2023-02-01T16:18:20;6.00;;;2.00;;
20794;SDS011;28087;-33.874;151.240;2023-02-01T16:20:55;6.50;;;1.90;;
20794;SDS011;28087;-33.874;151.240;2023-02-01T16:23:33;6.03;;;1.90;;
20794;SDS011;28087;-33.874;151.240;2023-02-01T16:26:09;6.20;;;1.92;;
20794;SDS011;28087;-33.874;151.240;2023-02-01T16:28:44;8.50;;;1.90;;
20794;SDS011;28087;-33.874;151.240;2023-02-01T16:31:22;6.38;;;1.70;;
20794;SDS011;28087;-33.874;151.240;2023-02-01T16:33:58;5.88;;;1.73;;
20794;SDS011;28087;-33.874;151.240;2023-02-01T16:36:33;7.60;;;1.83;;
20794;SDS011;28087;-33.874;151.240;2023-02-01T16:39:11;5.72;;;1.88;;
20794;SDS011;28087;-33.874;151.240;2023-02-01T16:41:47;8.50;;;2.00;;
20794;SDS011;28087;-33.874;151.240;2023-02-01T16:44:24;8.98;;;2.42;;
20794;SDS011;28087;-33.874;151.240;2023-02-01T16:46:59;5.55;;;1.92;;
20794;SDS011;28087;-33.874;151.240;2023-02-01T16:49:34;9.77;;;1.98;;
20794;SDS011;28087;-33.874;151.240;2023-02-01T16:52:10;8.55;;;2.10;;
20794;SDS011;28087;-33.874;151.240;2023-02-01T16:54:47;9.57;;;2.42;;
20794;SDS011;28087;-33.874;151.240;2023-02-01T16:57:23;9.13;;;2.42;;
20794;SDS011;28087;-33.874;151.240;2023-02-01T17:00:00;11.07;;;2.33;;
20794;SDS011;28087;-33.874;151.240;2023-02-01T17:02:50;10.95;;;2.40;;
20794;SDS011;28087;-33.874;151.240;2023-02-01T17:05:26;10.77;;;2.35;;
20794;SDS011;28087;-33.874;151.240;2023-02-01T17:08:01;11.68;;;2.30;;
20794;SDS011;28087;-33.874;151.240;2023-02-01T17:10:37;12.00;;;2.53;;
20794;SDS011;28087;-33.874;151.240;2023-02-01T17:13:14;8.07;;;2.20;;
20794;SDS011;28087;-33.874;151.240;2023-02-01T17:15:57;6.82;;;2.40;;
20794;SDS011;28087;-33.874;151.240;2023-02-01T17:18:33;8.02;;;2.17;;
20794;SDS011;28087;-33.874;151.240;2023-02-01T17:21:10;6.10;;;2.30;;
20794;SDS011;28087;-33.874;151.240;2023-02-01T17:23:44;8.85;;;2.25;;
20794;SDS011;28087;-33.874;151.240;2023-02-01T17:26:20;7.38;;;2.20;;
20794;SDS011;28087;-33.874;151.240;2023-02-01T17:28:57;7.05;;;2.08;;
20794;SDS011;28087;-33.874;151.240;2023-02-01T17:31:34;7.57;;;2.17;;
20794;SDS011;28087;-33.874;151.240;2023-02-01T17:34:11;5.40;;;2.00;;
20794;SDS011;28087;-33.874;151.240;2023-02-01T17:36:47;6.32;;;1.95;;
20794;SDS011;28087;-33.874;151.240;2023-02-01T17:39:22;6.07;;;2.00;;